Schedule Details


Flight Number: CTN4437
Departure: Munich (EDDM) at 08:55
Arrival: Franjo Tudman (LDZA) at 10:05
Route: ROTAX L603 LATLO DCT BERTA DCT ARGOM

Weather Information
EDDM 172350Z 00000KT CAVOK 14/13 Q1015 NOSIG
LDZA 172300Z 00000KT CAVOK 18/15 Q1017 NOSIG
Schedule Frequency

Route Map